Time;durP1;ratioP1;P1;durP2;ratioP2;P2;SDS_P1;SDS_P2;PMS_P1;PMS_P2;Temp;Humidity;BMP_temperature;BMP_pressure;BME280_temperature;BME280_humidity;BME280_pressure;Samples;Min_cycle;Max_cycle;Signal;HPM_P1;HPM_P2
2024/04/21 00:02:15;;;;;;;3.13;2.83;;;5.30;85.70;;;4.39;90.03;98017.09;5464228;26;20554;-83
2024/04/21 00:04:44;;;;;;;4.23;3.27;;;5.40;85.50;;;4.44;90.87;98013.91;5416596;26;20458;-80
2024/04/21 00:07:13;;;;;;;2.60;2.40;;;5.40;86.30;;;3.95;90.10;97936.41;5439158;26;20475;-79
2024/04/21 00:09:39;;;;;;;3.27;2.97;;;5.40;85.60;;;4.27;90.48;98010.47;5473064;26;21138;-78
2024/04/21 00:12:09;;;;;;;3.10;2.80;;;5.30;85.00;;;4.28;89.94;98004.97;5448312;26;20991;-80
2024/04/21 00:14:35;;;;;;;3.17;2.77;;;5.30;84.90;;;4.39;90.49;98006.41;5441712;26;20461;-79
2024/04/21 00:17:04;;;;;;;3.30;2.80;;;5.30;85.80;;;4.40;89.53;98008.06;5466323;26;20508;-80
2024/04/21 00:19:31;;;;;;;2.60;2.40;;;5.40;85.30;;;4.47;89.85;98009.00;5433116;26;21008;-82
2024/04/21 00:22:02;;;;;;;3.97;3.13;;;5.40;85.50;;;4.40;89.71;97997.34;5468081;26;20839;-83
2024/04/21 00:24:30;;;;;;;3.40;3.07;;;5.40;85.00;;;4.45;90.00;98000.31;5473073;26;20828;-80
2024/04/21 00:26:59;;;;;;;2.87;2.57;;;5.40;85.30;;;4.45;88.75;97999.50;5470030;26;20522;-81
2024/04/21 00:29:26;;;;;;;3.50;3.20;;;5.30;84.70;;;4.31;89.92;97998.41;5449910;26;20453;-82
2024/04/21 00:31:54;;;;;;;3.40;3.10;;;5.30;84.80;;;4.14;90.60;97993.13;5457351;26;21047;-76
2024/04/21 00:34:21;;;;;;;3.30;3.00;;;5.20;85.00;;;4.41;89.52;97992.84;5459627;26;21063;-78
2024/04/21 00:36:50;;;;;;;3.83;3.53;;;5.20;85.50;;;4.41;88.83;97993.66;5451879;26;20468;-79
2024/04/21 00:39:19;;;;;;;5.23;3.77;;;5.30;85.00;;;4.33;89.36;97975.81;5472525;26;20519;-78
2024/04/21 00:41:48;;;;;;;3.63;2.97;;;5.30;84.80;;;4.13;90.38;97975.44;5458221;26;20997;-78
2024/04/21 00:44:14;;;;;;;4.30;3.60;;;5.20;84.80;;;4.09;90.40;97974.13;5447552;26;20468;-80
2024/04/21 00:46:44;;;;;;;3.43;3.13;;;5.10;84.90;;;4.16;90.06;97977.75;5433300;26;20469;-79
2024/04/21 00:49:11;;;;;;;4.13;3.20;;;5.10;85.30;;;4.10;90.33;97973.97;5458611;26;20523;-78
2024/04/21 00:51:41;;;;;;;3.40;3.10;;;5.10;85.10;;;4.01;90.41;97952.75;5446565;26;20457;-80
2024/04/21 00:54:07;;;;;;;3.50;3.20;;;5.10;85.10;;;4.07;90.53;97952.06;5417650;26;20589;-78
2024/04/21 00:56:40;;;;;;;3.57;3.27;;;5.10;85.40;;;4.06;90.22;97942.41;5460336;26;20521;-81
2024/04/21 00:59:08;;;;;;;3.40;3.10;;;5.10;85.70;;;3.68;90.00;97893.13;5450704;26;20456;-80
2024/04/21 01:01:37;;;;;;;3.93;3.03;;;5.00;85.30;;;3.93;90.89;97937.59;5459145;26;20453;-78
2024/04/21 01:04:04;;;;;;;3.80;3.50;;;5.00;85.30;;;4.19;89.22;97949.84;5455525;26;20524;-78
2024/04/21 01:06:33;;;;;;;5.47;3.60;;;5.00;85.10;;;3.99;89.32;97930.72;5421557;26;20466;-82
2024/04/21 01:09:00;;;;;;;4.50;4.10;;;5.00;84.80;;;4.04;89.61;97939.06;5447570;26;20461;-81
2024/04/21 01:11:29;;;;;;;4.00;3.40;;;5.00;84.90;;;4.12;88.79;97936.34;5420878;26;20476;-79
2024/04/21 01:13:58;;;;;;;4.73;4.13;;;5.10;84.50;;;4.08;89.66;97940.38;5445184;26;20938;-82
2024/04/21 01:16:27;;;;;;;4.30;3.90;;;5.00;84.40;;;4.00;89.56;97943.06;5428258;26;20986;-80
2024/04/21 01:18:53;;;;;;;5.93;5.00;;;5.00;84.70;;;4.01;89.56;97950.94;5448971;26;20540;-80
2024/04/21 01:21:23;;;;;;;4.80;4.37;;;5.00;84.70;;;3.90;89.45;97941.47;5439330;26;20874;-75
2024/04/21 01:23:51;;;;;;;5.30;4.80;;;4.90;84.60;;;3.84;90.30;97942.16;5431079;26;20529;-81
2024/04/21 01:26:21;;;;;;;4.77;4.37;;;4.90;85.00;;;3.49;90.72;97888.19;5452463;26;21338;-80
2024/04/21 01:28:47;;;;;;;6.47;5.37;;;4.90;85.70;;;3.95;89.34;97952.47;5422505;26;20476;-80
2024/04/21 01:31:17;;;;;;;5.20;4.80;;;4.90;85.00;;;3.81;90.32;97935.34;5453394;26;21012;-80
2024/04/21 01:33:44;;;;;;;5.77;4.87;;;4.90;85.00;;;3.80;90.43;97938.16;5451331;26;20443;-82
2024/04/21 01:36:13;;;;;;;5.87;5.27;;;4.80;85.00;;;3.52;91.52;97941.28;5454788;26;20516;-82
2024/04/21 01:38:39;;;;;;;6.10;5.60;;;4.70;85.00;;;3.64;90.39;97923.03;5433931;26;20465;-79
2024/04/21 01:41:11;;;;;;;6.60;6.00;;;4.70;85.60;;;3.63;90.67;97924.03;5455774;26;21040;-78
2024/04/21 01:43:37;;;;;;;6.27;5.57;;;4.70;85.30;;;3.63;91.18;97924.03;5451060;26;20643;-81
2024/04/21 01:46:07;;;;;;;6.57;5.90;;;4.70;85.80;;;3.50;92.02;97927.25;5453481;26;20453;-78
2024/04/21 01:48:33;;;;;;;6.70;6.03;;;4.60;86.20;;;3.48;91.98;97921.25;5454117;26;20467;-77
2024/04/21 01:51:02;;;;;;;7.53;6.77;;;4.60;86.40;;;3.55;91.83;97919.56;5434274;26;20476;-78
2024/04/21 01:53:28;;;;;;;7.50;6.73;;;4.50;86.40;;;3.65;92.56;97904.16;5428875;26;20578;-77
2024/04/21 01:55:57;;;;;;;8.17;7.30;;;4.60;87.40;;;3.61;92.87;97910.84;5454066;26;22112;-76
2024/04/21 01:58:26;;;;;;;10.70;8.00;;;4.60;87.70;;;3.35;94.56;97913.81;5453225;26;20509;-80
2024/04/21 02:00:55;;;;;;;8.53;7.73;;;4.50;88.20;;;3.40;95.33;97906.91;5430896;26;20767;-79
2024/04/21 02:03:21;;;;;;;9.67;8.47;;;4.40;89.60;;;3.46;95.86;97905.41;5435644;26;20456;-82
2024/04/21 02:05:50;;;;;;;9.80;8.80;;;4.50;90.40;;;3.35;96.57;97877.22;5422875;26;20621;-78
2024/04/21 02:08:16;;;;;;;9.37;8.37;;;4.50;90.70;;;3.52;95.63;97883.34;5424358;26;21099;-79
2024/04/21 02:10:45;;;;;;;12.83;8.40;;;4.50;90.50;;;3.49;95.85;97889.03;5419162;26;20516;-81
2024/04/21 02:13:11;;;;;;;8.63;7.23;;;4.50;90.40;;;3.58;95.50;97876.47;5456276;26;20816;-81
2024/04/21 02:15:42;;;;;;;10.50;9.30;;;4.60;90.60;;;3.23;98.22;97859.91;5433427;26;20476;-82
2024/04/21 02:18:09;;;;;;;9.40;7.83;;;4.50;91.00;;;3.53;97.72;97878.81;5458113;26;20453;-81
2024/04/21 02:20:38;;;;;;;10.83;9.50;;;4.50;91.50;;;3.51;98.77;97879.00;5455955;26;20459;-81
2024/04/21 02:23:04;;;;;;;11.40;10.30;;;4.50;92.10;;;3.39;99.99;97880.41;5421103;26;20465;-81
2024/04/21 02:25:33;;;;;;;13.47;10.13;;;4.50;92.30;;;3.45;100.00;97876.19;5454864;26;20516;-80
2024/04/21 02:27:59;;;;;;;12.43;10.13;;;4.50;92.80;;;3.47;100.00;97868.84;5439760;26;20467;-80
2024/04/21 02:30:28;;;;;;;12.70;10.00;;;4.50;93.00;;;3.34;100.00;97870.22;5480554;26;20504;-76
2024/04/21 02:32:58;;;;;;;13.50;10.57;;;4.40;92.80;;;3.38;100.00;97862.69;5462968;26;20453;-79
2024/04/21 02:35:27;;;;;;;10.97;9.87;;;4.50;93.90;;;3.39;100.00;97856.34;5439406;26;20473;-78
2024/04/21 02:37:53;;;;;;;15.37;10.80;;;4.40;94.00;;;3.42;100.00;97856.00;5435140;26;20452;-78
2024/04/21 02:40:22;;;;;;;11.90;10.60;;;4.40;94.20;;;3.45;100.00;97849.50;5480919;26;20514;-80
2024/04/21 02:42:48;;;;;;;11.90;10.33;;;4.50;94.80;;;3.00;100.00;97783.25;5455645;26;20474;-75
2024/04/21 02:45:18;;;;;;;12.10;9.93;;;4.50;94.30;;;3.21;100.00;97827.22;5463970;26;20570;-77
2024/04/21 02:47:44;;;;;;;11.90;9.83;;;4.40;94.40;;;3.22;100.00;97844.88;5437173;26;20462;-79
2024/04/21 02:50:15;;;;;;;10.80;9.70;;;4.30;94.30;;;3.36;100.00;97844.16;5433617;26;20480;-79
2024/04/21 02:52:42;;;;;;;11.87;10.33;;;4.30;95.40;;;3.18;100.00;97852.41;5447019;26;20456;-81
2024/04/21 02:55:11;;;;;;;12.70;10.07;;;4.30;95.40;;;3.01;100.00;97822.28;5462435;26;20456;-81
2024/04/21 02:57:37;;;;;;;11.80;9.97;;;4.20;96.40;;;3.15;100.00;97835.91;5427695;26;20779;-79
2024/04/21 03:00:07;;;;;;;12.57;10.00;;;4.20;96.60;;;3.19;100.00;97829.22;5455461;26;20621;-75
2024/04/21 03:02:33;;;;;;;12.93;11.53;;;4.20;96.00;;;3.21;100.00;97837.88;5450756;26;20515;-83
2024/04/21 03:05:03;;;;;;;14.00;12.17;;;4.20;95.80;;;3.31;100.00;97827.00;5419373;26;20476;-83
2024/04/21 03:07:32;;;;;;;12.70;11.40;;;4.30;96.50;;;3.15;100.00;97817.22;5446569;26;20513;-80
2024/04/21 03:10:00;;;;;;;13.27;11.57;;;4.20;96.20;;;3.24;100.00;97824.19;5461301;26;20536;-80
2024/04/21 03:12:27;;;;;;;14.10;11.73;;;4.20;97.10;;;3.28;100.00;97811.31;5431087;26;20535;-80
2024/04/21 03:14:56;;;;;;;14.83;10.87;;;4.30;97.60;;;3.09;100.00;97808.88;5461300;26;20458;-81
2024/04/21 03:17:22;;;;;;;13.97;10.50;;;4.20;96.70;;;3.03;100.00;97772.22;5444630;26;20454;-80
2024/04/21 03:19:51;;;;;;;13.20;11.20;;;4.20;96.90;;;3.10;100.00;97802.53;5425237;26;20518;-78
2024/04/21 03:22:17;;;;;;;11.90;10.70;;;4.20;97.10;;;3.06;100.00;97787.88;5441483;26;20457;-81
2024/04/21 03:24:49;;;;;;;13.03;10.73;;;4.20;97.60;;;2.65;100.00;97727.50;5466917;26;21434;-83
2024/04/21 03:27:15;;;;;;;11.60;10.40;;;4.10;97.20;;;2.94;100.00;97773.25;5461169;26;20455;-83
2024/04/21 03:29:50;;;;;;;10.60;9.60;;;4.10;98.10;;;3.04;100.00;97795.25;5453966;26;20465;-81
2024/04/21 03:32:17;;;;;;;12.23;10.57;;;4.10;98.60;;;2.96;100.00;97777.41;5419509;26;20464;-80
2024/04/21 03:34:47;;;;;;;13.63;10.60;;;4.10;98.20;;;3.18;100.00;97790.19;5427392;26;20483;-80
2024/04/21 03:37:16;;;;;;;18.30;12.00;;;4.20;98.90;;;3.10;100.00;97783.84;5456343;26;21201;-78
2024/04/21 03:39:45;;;;;;;11.53;10.33;;;4.20;98.60;;;3.19;100.00;97786.50;5407897;26;20468;-82
2024/04/21 03:42:17;;;;;;;13.50;11.00;;;4.20;99.50;;;3.02;100.00;97781.22;5451487;26;21016;-81
2024/04/21 03:44:43;;;;;;;12.47;10.47;;;4.20;98.20;;;3.18;100.00;97779.50;5454870;26;20797;-78
2024/04/21 03:47:12;;;;;;;11.60;10.40;;;4.20;98.70;;;3.16;100.00;97781.50;5441734;26;20508;-82
2024/04/21 03:49:39;;;;;;;11.47;9.60;;;4.20;98.80;;;3.09;100.00;97771.50;5459281;26;20584;-81
2024/04/21 03:52:08;;;;;;;10.93;9.67;;;4.20;99.00;;;3.06;100.00;97781.72;5468281;26;20599;-79
2024/04/21 03:54:34;;;;;;;9.30;7.70;;;4.20;98.40;;;3.07;100.00;97773.53;5456967;26;20459;-79
2024/04/21 03:57:05;;;;;;;7.77;6.97;;;4.10;98.00;;;2.71;100.00;97714.47;5440995;26;20472;-80
2024/04/21 03:59:34;;;;;;;8.70;6.57;;;4.10;97.30;;;2.65;100.00;97732.81;5438001;26;22490;-82
2024/04/21 04:02:03;;;;;;;6.47;5.87;;;4.00;95.80;;;2.74;100.00;97756.81;5435734;26;20473;-74
2024/04/21 04:04:30;;;;;;;6.87;6.17;;;3.90;94.60;;;2.78;100.00;97769.63;5467756;26;21201;-79
2024/04/21 04:06:58;;;;;;;5.97;5.37;;;3.90;94.50;;;2.71;100.00;97741.13;5466207;26;20502;-78
2024/04/21 04:09:25;;;;;;;7.87;7.03;;;3.90;94.70;;;2.98;100.00;97764.72;5451480;26;20567;-78
2024/04/21 04:11:54;;;;;;;6.70;6.00;;;4.00;95.60;;;3.01;100.00;97763.56;5476848;26;21006;-77
2024/04/21 04:14:20;;;;;;;7.10;6.40;;;4.00;96.00;;;3.06;100.00;97761.19;5467673;26;20987;-79
2024/04/21 04:16:52;;;;;;;7.20;6.50;;;4.10;96.30;;;3.08;100.00;97756.50;5468582;26;20519;-78
2024/04/21 04:19:18;;;;;;;6.73;5.77;;;4.20;96.60;;;3.02;100.00;97759.88;5469352;26;20805;-77
2024/04/21 04:21:47;;;;;;;7.53;6.80;;;4.10;95.80;;;2.88;100.00;97748.09;5466145;26;20455;-81
2024/04/21 04:24:13;;;;;;;6.00;5.50;;;4.00;95.70;;;2.89;100.00;97748.91;5446288;26;20470;-80
2024/04/21 04:26:42;;;;;;;7.40;6.70;;;4.00;95.30;;;2.87;100.00;97756.28;5435585;26;22869;-77
2024/04/21 04:29:08;;;;;;;7.27;6.57;;;4.00;95.30;;;2.83;100.00;97745.09;5433208;26;22946;-79
2024/04/21 04:31:37;;;;;;;6.97;6.30;;;4.00;95.30;;;2.88;100.00;97747.25;5430182;26;20924;-79
2024/04/21 04:34:06;;;;;;;7.10;6.40;;;3.90;95.50;;;2.98;100.00;97745.22;5430955;26;20555;-81
2024/04/21 04:36:35;;;;;;;7.57;6.77;;;4.00;96.00;;;2.93;100.00;97740.41;5432888;26;20566;-78
2024/04/21 04:39:04;;;;;;;7.57;6.87;;;4.00;95.90;;;2.90;100.00;97737.25;5472927;26;20460;-80
2024/04/21 04:41:33;;;;;;;7.63;6.93;;;4.00;95.90;;;2.93;100.00;97744.88;5432188;26;20877;-79
2024/04/21 04:43:59;;;;;;;7.57;6.73;;;4.00;95.60;;;2.93;100.00;97739.56;5447477;26;20455;-80
2024/04/21 04:46:28;;;;;;;8.00;6.97;;;4.00;95.60;;;2.91;100.00;97747.75;5468915;26;20460;-79
2024/04/21 04:48:55;;;;;;;7.17;6.47;;;4.00;95.40;;;2.49;100.00;97675.03;5475811;26;20511;-76
2024/04/21 04:51:26;;;;;;;7.63;6.83;;;4.00;95.40;;;2.87;100.00;97742.94;5436006;26;20465;-78
2024/04/21 04:53:52;;;;;;;6.90;6.30;;;4.00;95.10;;;2.76;100.00;97744.94;5445442;26;21053;-80
2024/04/21 04:56:21;;;;;;;6.70;6.10;;;3.90;94.80;;;2.53;100.00;97692.38;5476918;26;20572;-77
2024/04/21 04:58:47;;;;;;;7.23;6.63;;;4.00;95.30;;;2.88;100.00;97747.25;5457621;26;20471;-78
2024/04/21 05:01:16;;;;;;;8.60;7.00;;;4.00;95.30;;;2.83;100.00;97740.59;5468683;26;21071;-78
2024/04/21 05:03:44;;;;;;;7.57;6.87;;;4.00;95.00;;;3.02;100.00;97749.19;5444596;26;21065;-79
2024/04/21 05:06:13;;;;;;;8.20;7.50;;;4.00;95.70;;;2.96;100.00;97740.03;5464227;26;20464;-80
2024/04/21 05:08:42;;;;;;;7.87;7.00;;;4.00;95.20;;;3.05;100.00;97748.84;5458107;26;20547;-81
2024/04/21 05:11:11;;;;;;;6.80;6.20;;;4.10;95.50;;;3.04;100.00;97746.38;5459697;26;20463;-82
2024/04/21 05:13:37;;;;;;;7.73;7.03;;;4.10;95.40;;;3.09;100.00;97750.16;5471081;26;20461;-76
2024/04/21 05:16:07;;;;;;;7.63;6.80;;;4.10;95.40;;;3.02;100.00;97743.00;5471334;26;20448;-80
2024/04/21 05:18:33;;;;;;;7.20;6.50;;;4.10;95.40;;;3.04;100.00;97747.19;5465940;26;20454;-80
2024/04/21 05:21:02;;;;;;;6.13;5.57;;;4.10;95.30;;;3.18;100.00;97750.94;5460427;26;20502;-78
2024/04/21 05:23:30;;;;;;;5.80;5.30;;;4.20;95.00;;;3.08;100.00;97740.47;5442792;26;20545;-80
2024/04/21 05:26:03;;;;;;;5.50;4.90;;;4.10;93.80;;;3.05;100.00;97748.84;5453073;26;20571;-68
2024/04/21 05:28:29;;;;;;;4.70;4.40;;;4.10;93.90;;;3.16;100.00;97757.47;5460840;26;20457;-72
2024/04/21 05:30:59;;;;;;;5.27;4.30;;;4.20;93.40;;;3.03;100.00;97742.84;5423168;26;20471;-73
2024/04/21 05:33:26;;;;;;;4.83;3.90;;;4.20;92.80;;;3.04;100.00;97741.84;5464366;26;20440;-73
2024/04/21 05:35:55;;;;;;;4.70;4.20;;;4.10;92.60;;;3.19;100.00;97743.78;5463221;26;20463;-74
2024/04/21 05:38:21;;;;;;;4.53;4.03;;;4.20;92.30;;;3.16;100.00;97752.16;5466029;26;20481;-74
2024/04/21 05:40:50;;;;;;;4.70;4.30;;;4.20;92.20;;;3.17;99.83;97727.09;5442434;26;20467;-73
2024/04/21 05:43:19;;;;;;;4.03;3.73;;;4.30;92.50;;;3.13;99.80;97750.66;5423920;26;20464;-72
2024/04/21 05:45:48;;;;;;;4.20;3.80;;;4.30;91.80;;;3.05;99.37;97690.13;5472255;26;20646;-80
2024/04/21 05:48:17;;;;;;;4.37;4.07;;;4.40;92.20;;;3.40;98.38;97759.19;5461622;26;20927;-70
2024/04/21 05:50:47;;;;;;;3.60;3.30;;;4.50;91.20;;;3.38;99.71;97754.00;5461104;26;20484;-70
2024/04/21 05:53:14;;;;;;;3.90;3.60;;;4.40;91.80;;;3.66;96.58;97756.19;5425815;26;21517;-70
2024/04/21 05:55:42;;;;;;;4.07;2.77;;;4.50;91.20;;;3.66;95.43;97755.38;5411587;26;21082;-70
2024/04/21 05:58:08;;;;;;;3.67;3.37;;;4.60;90.00;;;3.60;96.08;97751.56;5434897;26;21509;-70
2024/04/21 06:00:42;;;;;;;3.93;3.53;;;4.70;90.30;;;3.67;95.90;97746.34;5460152;26;20524;-71
2024/04/21 06:03:09;;;;;;;3.80;3.50;;;4.70;90.10;;;3.58;96.29;97752.72;5438637;26;20997;-71
2024/04/21 06:05:38;;;;;;;2.60;2.40;;;4.70;89.90;;;3.21;97.49;97758.63;5457105;26;20457;-70
2024/04/21 06:08:06;;;;;;;3.40;3.13;;;4.40;89.90;;;3.36;98.47;97756.03;5466147;26;20504;-70
2024/04/21 06:10:35;;;;;;;2.40;2.20;;;4.40;91.00;;;3.06;97.38;97761.19;5438750;26;21064;-70
2024/04/21 06:13:01;;;;;;;2.43;2.33;;;4.30;90.00;;;3.51;100.00;97755.28;5452075;26;20516;-71
2024/04/21 06:15:30;;;;;;;1.90;1.80;;;4.50;93.30;;;3.54;97.66;97769.13;5450051;26;21059;-71
2024/04/21 06:17:59;;;;;;;1.60;1.50;;;4.60;91.00;;;3.20;95.78;97772.16;5455628;26;21447;-70
2024/04/21 06:20:29;;;;;;;1.87;1.77;;;4.40;89.20;;;3.02;98.66;97765.22;5445453;26;20836;-70
2024/04/21 06:22:55;;;;;;;2.47;2.27;;;4.20;90.70;;;3.46;100.00;97763.81;5450918;26;20535;-70
2024/04/21 06:25:24;;;;;;;3.13;2.00;;;4.40;93.50;;;3.43;98.21;97766.03;5460549;26;20448;-70
2024/04/21 06:27:50;;;;;;;2.00;1.80;;;4.40;91.60;;;3.35;97.85;97773.06;5426037;26;20501;-70
2024/04/21 06:30:19;;;;;;;1.53;1.30;;;4.40;91.10;;;3.31;96.60;97768.25;5455958;26;20524;-72
2024/04/21 06:32:45;;;;;;;1.63;1.40;;;4.30;90.30;;;3.12;96.86;97767.66;5457451;26;21181;-70
2024/04/21 06:35:19;;;;;;;1.50;1.40;;;4.20;90.10;;;2.91;96.24;97698.88;5422887;26;20529;-70
2024/04/21 06:37:46;;;;;;;0.87;0.80;;;4.30;90.70;;;2.86;94.46;97760.75;5454851;26;20576;-70
2024/04/21 06:40:15;;;;;;;0.90;0.90;;;4.00;88.40;;;2.83;96.87;97761.13;5433422;26;20483;-69
2024/04/21 06:42:42;;;;;;;0.80;0.80;;;3.90;90.00;;;2.63;97.10;97766.00;5431002;26;20514;-71
2024/04/21 06:45:11;;;;;;;0.70;0.70;;;3.80;89.60;;;2.13;97.49;97712.78;5419348;26;20460;-70
2024/04/21 06:47:37;;;;;;;0.70;0.60;;;3.70;90.20;;;2.46;98.50;97752.72;5439418;26;20782;-70
2024/04/21 06:50:07;;;;;;;0.80;0.73;;;3.70;91.00;;;2.78;97.44;97777.63;5463864;26;20533;-70
2024/04/21 06:52:39;;;;;;;0.70;0.50;;;3.80;91.30;;;2.86;97.25;97762.63;5441799;26;20447;-70
2024/04/21 06:55:09;;;;;;;0.87;0.80;;;3.90;90.90;;;2.90;96.92;97767.44;5427712;26;20896;-73
2024/04/21 06:57:35;;;;;;;0.67;0.67;;;4.00;90.40;;;2.92;96.00;97769.91;5387624;26;20482;-74
2024/04/21 07:00:05;;;;;;;0.70;0.70;;;4.00;90.10;;;3.03;94.83;97776.72;5459203;26;20466;-75
2024/04/21 07:02:31;;;;;;;0.80;0.80;;;4.00;88.90;;;2.95;95.90;97785.59;5458654;26;20539;-75
2024/04/21 07:05:00;;;;;;;0.90;0.90;;;4.10;89.30;;;3.07;94.98;97781.53;5451018;26;20473;-75
2024/04/21 07:07:26;;;;;;;1.10;1.00;;;4.20;89.50;;;3.18;95.50;97774.16;5457366;26;20598;-72
2024/04/21 07:09:59;;;;;;;0.50;0.50;;;4.20;89.70;;;3.02;93.22;97775.03;5459045;26;20575;-73
2024/04/21 07:12:27;;;;;;;0.50;0.40;;;4.10;87.10;;;3.10;93.23;97783.84;5433462;26;21044;-74
2024/04/21 07:14:56;;;;;;;0.53;0.50;;;4.20;87.10;;;3.03;92.26;97790.06;5434543;26;20575;-73
2024/04/21 07:17:23;;;;;;;0.47;0.47;;;4.10;86.20;;;3.06;92.68;97782.53;5461372;26;20456;-74
2024/04/21 07:19:52;;;;;;;0.50;0.50;;;4.10;86.20;;;3.36;92.09;97788.09;5424599;26;20461;-73
2024/04/21 07:22:19;;;;;;;0.50;0.47;;;4.30;86.80;;;3.13;90.85;97782.69;5460445;26;21387;-73
2024/04/21 07:24:50;;;;;;;0.70;0.60;;;4.30;85.00;;;2.98;91.52;97785.25;5454622;26;21291;-72
2024/04/21 07:27:19;;;;;;;1.03;0.60;;;4.10;84.80;;;3.23;93.24;97794.00;5455028;26;21194;-81
2024/04/21 07:29:50;;;;;;;0.50;0.40;;;4.20;86.90;;;2.93;90.39;97792.94;5428997;26;20947;-75
2024/04/21 07:32:16;;;;;;;0.73;0.50;;;4.10;84.30;;;2.91;93.15;97790.44;5444294;26;21277;-74
2024/04/21 07:34:46;;;;;;;0.67;0.50;;;4.00;85.60;;;3.07;93.36;97794.88;5437710;26;20468;-72
2024/04/21 07:37:12;;;;;;;0.50;0.40;;;4.10;87.20;;;2.73;92.65;97782.66;5474928;26;20530;-72
2024/04/21 07:39:41;;;;;;;0.50;0.50;;;4.00;85.70;;;3.07;93.39;97784.22;5458097;26;21195;-73
2024/04/21 07:42:10;;;;;;;0.70;0.70;;;4.10;87.60;;;2.98;93.59;97793.28;5428854;26;20487;-74
2024/04/21 07:44:39;;;;;;;0.60;0.60;;;4.10;86.80;;;2.97;93.12;97797.75;5403553;26;20521;-74
2024/04/21 07:47:09;;;;;;;0.70;0.63;;;4.10;86.30;;;3.13;92.51;97797.88;5449871;26;21147;-73
2024/04/21 07:49:35;;;;;;;0.70;0.60;;;4.20;86.70;;;3.03;91.22;97798.91;5470315;26;20506;-73
2024/04/21 07:52:04;;;;;;;0.70;0.60;;;4.10;85.00;;;3.16;90.72;97803.69;5396784;26;20473;-74
2024/04/21 07:54:30;;;;;;;0.60;0.60;;;4.20;85.10;;;3.38;89.89;97806.63;5412220;26;20746;-72
2024/04/21 07:56:59;;;;;;;0.60;0.50;;;4.30;85.30;;;3.29;87.28;97804.97;5468205;26;20615;-71
2024/04/21 07:59:25;;;;;;;0.80;0.50;;;4.40;83.00;;;3.33;89.93;97800.94;5470094;26;21056;-74
2024/04/21 08:01:57;;;;;;;0.67;0.60;;;4.40;83.80;;;3.66;88.25;97800.78;5436194;26;20520;-72
2024/04/21 08:04:23;;;;;;;0.50;0.50;;;4.70;84.20;;;3.44;87.67;97799.75;5438121;26;20496;-72
2024/04/21 08:06:53;;;;;;;0.73;0.63;;;4.60;82.70;;;3.63;88.18;97809.13;5431081;26;20481;-67
2024/04/21 08:09:19;;;;;;;0.60;0.60;;;4.60;83.10;;;3.59;86.61;97808.69;5458286;26;20463;-70
2024/04/21 08:11:50;;;;;;;0.50;0.50;;;4.60;82.50;;;3.64;86.16;97814.31;5459512;26;20511;-83
2024/04/21 08:14:16;;;;;;;0.60;0.60;;;4.60;82.00;;;3.66;86.90;97822.97;5454525;26;21279;-66
2024/04/21 08:16:46;;;;;;;0.93;0.90;;;4.60;82.20;;;4.21;86.93;97811.41;5452503;26;20480;-69
2024/04/21 08:19:14;;;;;;;1.10;1.00;;;5.00;83.40;;;4.48;84.35;97820.72;5457183;26;20789;-70
2024/04/21 08:21:46;;;;;;;0.60;0.60;;;5.40;82.80;;;4.43;83.13;97812.41;5437244;26;20577;-70
2024/04/21 08:24:12;;;;;;;0.77;0.70;;;5.50;81.10;;;4.18;83.57;97834.03;5449108;26;20448;-70
2024/04/21 08:26:41;;;;;;;0.60;0.60;;;5.30;80.10;;;4.20;87.35;97836.50;5440458;26;20683;-69
2024/04/21 08:29:07;;;;;;;0.93;0.60;;;5.20;82.30;;;4.13;83.32;97830.22;5426626;26;20465;-68
2024/04/21 08:31:36;;;;;;;0.90;0.90;;;5.20;80.40;;;3.85;84.15;97839.56;5437040;26;21038;-69
2024/04/21 08:34:02;;;;;;;1.00;1.00;;;5.00;80.30;;;3.78;85.94;97827.94;5444395;26;20408;-68
2024/04/21 08:36:34;;;;;;;1.30;1.20;;;4.80;81.40;;;3.87;86.70;97837.56;5453659;26;20355;-69
2024/04/21 08:39:00;;;;;;;1.03;1.03;;;4.80;82.10;;;3.93;85.13;97836.84;5472675;26;20470;-68
2024/04/21 08:41:40;;;;;;;1.20;1.10;;;4.80;81.30;;;3.79;84.01;97832.28;5462684;26;20503;-67
2024/04/21 08:44:11;;;;;;;0.93;0.93;;;4.90;80.60;;;3.91;85.63;97838.88;5463076;26;20463;-69
2024/04/21 08:46:42;;;;;;;1.00;1.00;;;4.80;81.60;;;4.13;84.93;97848.94;5468053;26;20448;-70
2024/04/21 08:49:08;;;;;;;1.70;1.30;;;5.00;81.40;;;3.80;86.54;97847.28;5440766;26;20903;-68
2024/04/21 08:51:41;;;;;;;1.30;1.20;;;4.90;80.90;;;3.75;86.47;97844.31;5422955;26;20477;-72
2024/04/21 08:54:08;;;;;;;1.53;1.30;;;4.80;81.60;;;3.33;89.27;97841.84;5452258;26;20443;-72
2024/04/21 08:56:46;;;;;;;1.30;1.27;;;4.60;82.50;;;3.17;89.41;97857.94;5408429;26;20550;-73
2024/04/21 08:59:14;;;;;;;1.10;1.10;;;4.40;82.30;;;3.27;88.87;97837.22;5467231;26;20451;-77
2024/04/21 09:01:43;;;;;;;1.50;1.40;;;4.40;83.40;;;3.62;89.55;97848.41;5429233;26;20468;-65
2024/04/21 09:04:12;;;;;;;1.30;1.23;;;4.50;83.90;;;3.82;89.12;97869.31;5461796;26;20869;-82
2024/04/21 09:06:47;;;;;;;1.20;1.20;;;4.70;84.60;;;4.08;87.49;97822.72;5460885;26;20465;-67
2024/04/21 09:09:13;;;;;;;1.50;1.40;;;5.00;83.90;;;4.46;84.72;97848.66;5436235;26;20507;-65
2024/04/21 09:11:43;;;;;;;1.63;1.53;;;5.40;82.10;;;4.74;81.81;97848.91;5468156;26;20445;-65
2024/04/21 09:14:11;;;;;;;1.80;1.70;;;5.60;80.70;;;5.03;80.46;97844.59;5432147;26;20703;-65
2024/04/21 09:16:41;;;;;;;1.90;1.80;;;5.70;80.10;;;5.71;78.95;97850.84;5454098;26;20465;-66
2024/04/21 09:19:07;;;;;;;2.00;1.90;;;6.30;80.20;;;5.92;76.58;97839.34;5461295;26;20515;-65
2024/04/21 09:21:36;;;;;;;1.90;1.80;;;6.70;78.30;;;6.30;75.38;97840.97;5433435;26;20600;-65
2024/04/21 09:24:07;;;;;;;1.60;1.50;;;7.10;77.70;;;5.71;77.32;97848.16;5436965;26;20463;-65
2024/04/21 09:26:36;;;;;;;1.70;1.60;;;6.90;77.20;;;5.37;77.27;97843.19;5463769;26;20601;-66
2024/04/21 09:29:03;;;;;;;1.37;1.37;;;6.60;76.40;;;5.67;75.75;97835.13;5453195;26;20449;-66
2024/04/21 09:31:32;;;;;;;1.40;1.30;;;6.70;76.90;;;6.22;74.09;97844.63;5466334;26;21163;-65
2024/04/21 09:33:59;;;;;;;1.30;1.30;;;7.00;76.40;;;6.34;73.66;97858.34;5425195;26;21122;-66
2024/04/21 09:36:28;;;;;;;1.60;1.50;;;7.10;75.80;;;6.09;73.81;97861.38;5466819;26;20592;-64
2024/04/21 09:38:57;;;;;;;1.20;0.90;;;7.10;75.50;;;6.12;74.15;97855.63;5456059;26;20535;-67
2024/04/21 09:41:31;;;;;;;1.23;1.13;;;7.00;76.10;;;5.89;73.96;97855.78;5473583;26;20464;-67
2024/04/21 09:43:58;;;;;;;1.50;1.07;;;6.80;75.30;;;5.93;73.85;97863.25;5434060;26;20453;-76
2024/04/21 09:46:28;;;;;;;1.43;1.23;;;6.80;75.40;;;5.58;74.63;97870.25;5461875;26;21052;-67
2024/04/21 09:48:56;;;;;;;1.50;1.40;;;6.60;75.10;;;5.51;76.06;97862.13;5461803;26;20520;-66
2024/04/21 09:51:28;;;;;;;1.20;1.10;;;6.50;75.70;;;5.38;77.58;97849.41;5455942;26;20468;-69
2024/04/21 09:53:57;;;;;;;2.07;1.17;;;6.40;76.60;;;5.84;76.35;97859.03;5468912;26;21235;-69
2024/04/21 09:56:40;;;;;;;0.90;0.90;;;6.60;76.80;;;6.66;75.63;97861.50;5405894;26;20461;-70
2024/04/21 09:59:10;;;;;;;1.10;1.10;;;7.10;77.50;;;6.74;72.49;97865.91;5458909;26;20504;-70
2024/04/21 10:01:42;;;;;;;0.90;0.80;;;7.50;75.40;;;6.65;71.61;97857.97;5430256;26;20514;-70
2024/04/21 10:04:18;;;;;;;2.10;0.80;;;7.60;74.80;;;6.81;71.36;97845.28;5430062;26;20564;-71
2024/04/21 10:06:50;;;;;;;0.83;0.83;;;7.70;74.30;;;6.75;70.75;97868.41;5464254;26;20527;-70
2024/04/21 10:09:19;;;;;;;0.80;0.73;;;7.60;73.50;;;6.78;70.96;97862.63;5443677;26;20998;-70
2024/04/21 10:11:51;;;;;;;0.80;0.80;;;7.60;73.80;;;5.99;70.65;97789.25;5456390;26;20479;-79
2024/04/21 10:14:18;;;;;;;0.50;0.50;;;7.50;73.30;;;5.79;71.50;97786.38;5434010;26;20456;-71
2024/04/21 10:16:48;;;;;;;0.93;0.93;;;7.40;73.10;;;6.53;74.48;97867.59;5470581;26;20456;-71
2024/04/21 10:19:22;;;;;;;0.80;0.80;;;7.50;75.20;;;6.37;75.11;97864.16;5430885;26;20592;-71
2024/04/21 10:21:53;;;;;;;0.90;0.90;;;7.50;75.10;;;6.86;70.30;97863.50;5445848;26;20466;-76
2024/04/21 10:24:19;;;;;;;0.90;0.80;;;7.60;73.30;;;6.65;71.53;97849.09;5447032;26;20461;-74
2024/04/21 10:27:01;;;;;;;0.80;0.80;;;7.70;73.90;;;6.71;70.76;97867.13;5376526;26;20604;-73
2024/04/21 10:29:29;;;;;;;0.90;0.90;;;7.80;73.10;;;7.01;71.22;97866.91;5465464;26;20460;-72
2024/04/21 10:32:11;;;;;;;0.67;0.67;;;7.90;73.60;;;6.87;71.38;97808.75;5443857;26;20472;-73
2024/04/21 10:34:44;;;;;;;1.07;0.97;;;8.10;74.60;;;7.09;69.76;97823.81;5450010;26;21052;-69